AUA644 LKPR-LOWW
Flight info
| Callsign | AUA644 |
|---|---|
| Flight time | 0h 41m |
| Altitude | 17000 |
| Route | VOZ DCT LANUX LANUX7W |
| Aircraft | DH8D/M-SDE2E3FGRY/H |
Departure
| Time | 2026-04-22 13:03 |
|---|---|
| Airport | Václav Havel Airport Prague (LKPR) |
Arrival
| Time | 2026-04-22 13:44 |
|---|---|
| Airport | Vienna International Airport (LOWW) |
| Time | Latitude | Longitude | Altitude | Speed | Heading |
|---|---|---|---|---|---|
| 2026-04-22 12:51 | 50.10973 | 14.26346 | 1176 ft | 0 kts | 303° |
| 2026-04-22 12:59 | 50.11004 | 14.26278 | 1175 ft | 13 kts | 303° |
| 2026-04-22 13:00 | 50.10944 | 14.26151 | 1176 ft | 20 kts | 214° |
| 2026-04-22 13:00 | 50.10800 | 14.25997 | 1178 ft | 27 kts | 214° |
| 2026-04-22 13:00 | 50.10644 | 14.25834 | 1182 ft | 26 kts | 204° |
| 2026-04-22 13:00 | 50.10518 | 14.25950 | 1186 ft | 25 kts | 124° |
| 2026-04-22 13:01 | 50.10371 | 14.26245 | 1193 ft | 40 kts | 127° |
| 2026-04-22 13:01 | 50.10215 | 14.26568 | 1201 ft | 34 kts | 127° |
| 2026-04-22 13:01 | 50.10070 | 14.26866 | 1207 ft | 38 kts | 126° |
| 2026-04-22 13:01 | 50.09917 | 14.27186 | 1209 ft | 34 kts | 126° |
| 2026-04-22 13:02 | 50.09773 | 14.27437 | 1211 ft | 27 kts | 136° |
| 2026-04-22 13:02 | 50.09646 | 14.27624 | 1214 ft | 25 kts | 144° |
| 2026-04-22 13:02 | 50.09494 | 14.27510 | 1222 ft | 27 kts | 217° |
| 2026-04-22 13:02 | 50.09439 | 14.27356 | 1223 ft | 19 kts | 302° |
| 2026-04-22 13:03 | 50.09679 | 14.26858 | 1220 ft | 97 kts | 307° |
| 2026-04-22 13:03 | 50.10208 | 14.25762 | 1249 ft | 144 kts | 309° |
| 2026-04-22 13:03 | 50.10842 | 14.24466 | 1622 ft | 156 kts | 309° |
| 2026-04-22 13:03 | 50.11514 | 14.23115 | 2166 ft | 161 kts | 310° |
| 2026-04-22 13:04 | 50.12211 | 14.21707 | 2633 ft | 173 kts | 309° |
| 2026-04-22 13:04 | 50.12951 | 14.20200 | 3157 ft | 178 kts | 309° |
| 2026-04-22 13:04 | 50.13701 | 14.18655 | 3617 ft | 181 kts | 309° |
| 2026-04-22 13:04 | 50.14461 | 14.17083 | 4117 ft | 182 kts | 309° |
| 2026-04-22 13:05 | 50.15225 | 14.15502 | 4618 ft | 184 kts | 309° |
| 2026-04-22 13:05 | 50.15991 | 14.13921 | 5122 ft | 185 kts | 309° |
| 2026-04-22 13:05 | 50.16816 | 14.12217 | 5270 ft | 207 kts | 309° |
| 2026-04-22 13:05 | 50.17689 | 14.10398 | 5588 ft | 215 kts | 309° |
| 2026-04-22 13:06 | 50.18572 | 14.08476 | 6004 ft | 220 kts | 302° |
| 2026-04-22 13:06 | 50.18864 | 14.06134 | 6362 ft | 230 kts | 262° |
| 2026-04-22 13:06 | 50.18066 | 14.03953 | 6738 ft | 239 kts | 225° |
| 2026-04-22 13:06 | 50.16751 | 14.02348 | 7204 ft | 242 kts | 218° |
| 2026-04-22 13:07 | 50.15395 | 14.00790 | 7679 ft | 243 kts | 218° |
| 2026-04-22 13:07 | 50.14046 | 13.99244 | 8148 ft | 245 kts | 218° |
| 2026-04-22 13:07 | 50.12505 | 13.98047 | 8567 ft | 249 kts | 190° |
| 2026-04-22 13:07 | 50.10804 | 13.98385 | 8955 ft | 249 kts | 158° |
| 2026-04-22 13:08 | 50.09218 | 13.99451 | 9422 ft | 251 kts | 154° |
| 2026-04-22 13:08 | 50.07614 | 14.00570 | 9892 ft | 252 kts | 154° |
| 2026-04-22 13:08 | 50.06015 | 14.01692 | 10356 ft | 254 kts | 154° |
| 2026-04-22 13:08 | 50.04423 | 14.02806 | 10813 ft | 256 kts | 154° |
| 2026-04-22 13:09 | 50.02796 | 14.03942 | 11275 ft | 258 kts | 154° |
| 2026-04-22 13:09 | 50.01142 | 14.05095 | 11741 ft | 259 kts | 153° |
| 2026-04-22 13:09 | 49.99495 | 14.06244 | 12202 ft | 261 kts | 153° |
| 2026-04-22 13:09 | 49.97836 | 14.07400 | 12666 ft | 263 kts | 153° |
| 2026-04-22 13:10 | 49.96166 | 14.08564 | 13118 ft | 264 kts | 152° |
| 2026-04-22 13:10 | 49.94490 | 14.09730 | 13561 ft | 266 kts | 152° |
| 2026-04-22 13:10 | 49.92801 | 14.10905 | 13991 ft | 267 kts | 152° |
| 2026-04-22 13:10 | 49.91106 | 14.12085 | 14403 ft | 269 kts | 152° |
| 2026-04-22 13:11 | 49.89384 | 14.13280 | 14810 ft | 271 kts | 151° |
| 2026-04-22 13:11 | 49.87669 | 14.14470 | 15198 ft | 272 kts | 151° |
| 2026-04-22 13:11 | 49.85965 | 14.15756 | 15566 ft | 271 kts | 141° |
| 2026-04-22 13:11 | 49.84658 | 14.17787 | 15891 ft | 264 kts | 122° |
| 2026-04-22 13:12 | 49.83556 | 14.20055 | 16255 ft | 265 kts | 121° |
| 2026-04-22 13:12 | 49.82459 | 14.22323 | 16612 ft | 266 kts | 121° |
| 2026-04-22 13:12 | 49.81340 | 14.24635 | 16949 ft | 268 kts | 121° |
| 2026-04-22 13:12 | 49.80221 | 14.26940 | 17195 ft | 274 kts | 121° |
| 2026-04-22 13:13 | 49.79050 | 14.29357 | 17278 ft | 286 kts | 121° |
| 2026-04-22 13:13 | 49.77832 | 14.31865 | 17303 ft | 298 kts | 121° |
| 2026-04-22 13:13 | 49.76572 | 14.34453 | 17296 ft | 309 kts | 122° |
| 2026-04-22 13:13 | 49.75249 | 14.37159 | 17288 ft | 318 kts | 122° |
| 2026-04-22 13:14 | 49.73889 | 14.39931 | 17285 ft | 325 kts | 122° |
| 2026-04-22 13:14 | 49.72516 | 14.42726 | 17282 ft | 330 kts | 122° |
| 2026-04-22 13:14 | 49.71129 | 14.45544 | 17273 ft | 335 kts | 122° |
| 2026-04-22 13:14 | 49.69706 | 14.48430 | 17269 ft | 338 kts | 122° |
| 2026-04-22 13:15 | 49.68278 | 14.51324 | 17268 ft | 340 kts | 122° |
| 2026-04-22 13:15 | 49.66839 | 14.54264 | 17269 ft | 341 kts | 121° |
| 2026-04-22 13:15 | 49.65543 | 14.57282 | 17276 ft | 341 kts | 117° |
| 2026-04-22 13:15 | 49.64272 | 14.60406 | 17273 ft | 342 kts | 117° |
| 2026-04-22 13:16 | 49.63006 | 14.63519 | 17269 ft | 343 kts | 117° |
| 2026-04-22 13:16 | 49.61733 | 14.66644 | 17265 ft | 344 kts | 118° |
| 2026-04-22 13:16 | 49.60456 | 14.69769 | 17255 ft | 345 kts | 118° |
| 2026-04-22 13:16 | 49.59177 | 14.72896 | 17252 ft | 345 kts | 118° |
| 2026-04-22 13:17 | 49.57908 | 14.75990 | 17252 ft | 345 kts | 118° |
| 2026-04-22 13:17 | 49.56616 | 14.79137 | 17252 ft | 346 kts | 118° |
| 2026-04-22 13:17 | 49.55327 | 14.82271 | 17256 ft | 346 kts | 118° |
| 2026-04-22 13:17 | 49.54054 | 14.85359 | 17255 ft | 346 kts | 118° |
| 2026-04-22 13:18 | 49.52510 | 14.88281 | 17240 ft | 353 kts | 134° |
| 2026-04-22 13:18 | 49.50592 | 14.90597 | 17242 ft | 356 kts | 139° |
| 2026-04-22 13:18 | 49.48620 | 14.92882 | 17253 ft | 355 kts | 139° |
| 2026-04-22 13:18 | 49.46652 | 14.95155 | 17256 ft | 355 kts | 139° |
| 2026-04-22 13:19 | 49.44660 | 14.97457 | 17253 ft | 355 kts | 139° |
| 2026-04-22 13:19 | 49.42699 | 14.99725 | 17249 ft | 356 kts | 139° |
| 2026-04-22 13:19 | 49.40728 | 15.02007 | 17256 ft | 356 kts | 139° |
| 2026-04-22 13:19 | 49.38734 | 15.04316 | 17255 ft | 356 kts | 139° |
| 2026-04-22 13:20 | 49.36756 | 15.06606 | 17251 ft | 357 kts | 139° |
| 2026-04-22 13:20 | 49.34788 | 15.08883 | 17245 ft | 357 kts | 139° |
| 2026-04-22 13:20 | 49.32799 | 15.11183 | 17237 ft | 358 kts | 139° |
| 2026-04-22 13:20 | 49.30801 | 15.13493 | 17230 ft | 358 kts | 139° |
| 2026-04-22 13:21 | 49.28817 | 15.15784 | 17222 ft | 358 kts | 139° |
| 2026-04-22 13:21 | 49.26845 | 15.18059 | 17213 ft | 358 kts | 139° |
| 2026-04-22 13:21 | 49.24833 | 15.20378 | 17201 ft | 359 kts | 139° |
| 2026-04-22 13:21 | 49.22840 | 15.22673 | 17179 ft | 358 kts | 139° |
| 2026-04-22 13:22 | 49.20856 | 15.24955 | 17173 ft | 357 kts | 139° |
| 2026-04-22 13:22 | 49.18878 | 15.27229 | 17162 ft | 356 kts | 139° |
| 2026-04-22 13:22 | 49.16886 | 15.29506 | 17171 ft | 355 kts | 139° |
| 2026-04-22 13:22 | 49.14910 | 15.31765 | 17177 ft | 355 kts | 139° |
| 2026-04-22 13:23 | 49.12942 | 15.34037 | 17182 ft | 354 kts | 139° |
| 2026-04-22 13:23 | 49.10991 | 15.36266 | 17188 ft | 354 kts | 139° |
| 2026-04-22 13:23 | 49.09017 | 15.38522 | 17179 ft | 354 kts | 139° |
| 2026-04-22 13:23 | 49.07045 | 15.40773 | 17188 ft | 353 kts | 139° |
| 2026-04-22 13:24 | 49.05078 | 15.43012 | 17204 ft | 353 kts | 139° |
| 2026-04-22 13:24 | 49.03116 | 15.45242 | 17205 ft | 353 kts | 139° |
| 2026-04-22 13:24 | 49.01141 | 15.47508 | 17215 ft | 353 kts | 139° |
| 2026-04-22 13:24 | 48.99181 | 15.49746 | 17221 ft | 354 kts | 139° |
| 2026-04-22 13:25 | 48.97261 | 15.51936 | 17050 ft | 343 kts | 139° |
| 2026-04-22 13:25 | 48.95380 | 15.54079 | 16693 ft | 333 kts | 139° |
| 2026-04-22 13:25 | 48.93552 | 15.56157 | 16280 ft | 326 kts | 139° |
| 2026-04-22 13:25 | 48.91743 | 15.58209 | 15861 ft | 319 kts | 139° |
| 2026-04-22 13:26 | 48.89997 | 15.60189 | 15457 ft | 313 kts | 139° |
| 2026-04-22 13:26 | 48.88262 | 15.62159 | 15080 ft | 305 kts | 138° |
| 2026-04-22 13:26 | 48.86617 | 15.64111 | 15020 ft | 295 kts | 137° |
| 2026-04-22 13:26 | 48.85011 | 15.66045 | 14925 ft | 293 kts | 137° |
| 2026-04-22 13:27 | 48.83434 | 15.67947 | 14821 ft | 292 kts | 137° |
| 2026-04-22 13:27 | 48.81832 | 15.69876 | 14714 ft | 291 kts | 138° |
| 2026-04-22 13:27 | 48.80246 | 15.71778 | 14618 ft | 290 kts | 138° |
| 2026-04-22 13:27 | 48.78655 | 15.73687 | 14517 ft | 290 kts | 138° |
| 2026-04-22 13:28 | 48.77084 | 15.75570 | 14413 ft | 290 kts | 138° |
| 2026-04-22 13:28 | 48.75501 | 15.77464 | 14308 ft | 290 kts | 138° |
| 2026-04-22 13:28 | 48.73910 | 15.79366 | 14201 ft | 291 kts | 138° |
| 2026-04-22 13:28 | 48.72307 | 15.81279 | 14093 ft | 294 kts | 138° |
| 2026-04-22 13:29 | 48.70704 | 15.83191 | 13983 ft | 297 kts | 138° |
| 2026-04-22 13:29 | 48.69083 | 15.85122 | 13871 ft | 299 kts | 139° |
| 2026-04-22 13:29 | 48.67429 | 15.87088 | 13762 ft | 300 kts | 139° |
| 2026-04-22 13:29 | 48.65800 | 15.89022 | 13652 ft | 302 kts | 139° |
| 2026-04-22 13:30 | 48.64136 | 15.90997 | 13538 ft | 303 kts | 139° |
| 2026-04-22 13:30 | 48.62468 | 15.92975 | 13423 ft | 303 kts | 139° |
| 2026-04-22 13:30 | 48.60822 | 15.94923 | 13307 ft | 303 kts | 139° |
| 2026-04-22 13:30 | 48.59167 | 15.96883 | 13192 ft | 302 kts | 139° |
| 2026-04-22 13:31 | 48.57503 | 15.98851 | 13077 ft | 302 kts | 139° |
| 2026-04-22 13:31 | 48.55866 | 16.00787 | 12964 ft | 301 kts | 139° |
| 2026-04-22 13:31 | 48.54215 | 16.02740 | 12851 ft | 301 kts | 139° |
| 2026-04-22 13:31 | 48.52565 | 16.04685 | 12739 ft | 300 kts | 139° |
| 2026-04-22 13:32 | 48.50908 | 16.06636 | 12625 ft | 300 kts | 139° |
| 2026-04-22 13:32 | 48.49287 | 16.08632 | 12479 ft | 299 kts | 133° |
| 2026-04-22 13:32 | 48.48261 | 16.11219 | 12345 ft | 289 kts | 102° |
| 2026-04-22 13:32 | 48.47989 | 16.14220 | 12138 ft | 287 kts | 91° |
| 2026-04-22 13:33 | 48.47859 | 16.17236 | 11981 ft | 287 kts | 90° |
| 2026-04-22 13:33 | 48.47739 | 16.20221 | 11856 ft | 286 kts | 90° |
| 2026-04-22 13:33 | 48.47623 | 16.23186 | 11753 ft | 285 kts | 90° |
| 2026-04-22 13:33 | 48.47504 | 16.26180 | 11650 ft | 284 kts | 90° |
| 2026-04-22 13:34 | 48.47388 | 16.29118 | 11547 ft | 284 kts | 90° |
| 2026-04-22 13:34 | 48.47269 | 16.32099 | 11442 ft | 283 kts | 90° |
| 2026-04-22 13:34 | 48.47152 | 16.35040 | 11338 ft | 283 kts | 90° |
| 2026-04-22 13:34 | 48.47035 | 16.37980 | 11234 ft | 282 kts | 90° |
| 2026-04-22 13:35 | 48.46915 | 16.40943 | 11130 ft | 282 kts | 90° |
| 2026-04-22 13:35 | 48.46796 | 16.43873 | 11026 ft | 282 kts | 90° |
| 2026-04-22 13:35 | 48.46676 | 16.46812 | 10912 ft | 282 kts | 90° |
| 2026-04-22 13:35 | 48.46555 | 16.49806 | 10584 ft | 285 kts | 90° |
| 2026-04-22 13:36 | 48.46395 | 16.52786 | 10205 ft | 288 kts | 96° |
| 2026-04-22 13:36 | 48.45576 | 16.55533 | 9805 ft | 297 kts | 127° |
| 2026-04-22 13:36 | 48.43877 | 16.57297 | 9434 ft | 301 kts | 156° |
| 2026-04-22 13:36 | 48.41877 | 16.58230 | 9078 ft | 302 kts | 163° |
| 2026-04-22 13:37 | 48.39859 | 16.59073 | 8701 ft | 303 kts | 163° |
| 2026-04-22 13:37 | 48.37827 | 16.59913 | 8310 ft | 294 kts | 163° |
| 2026-04-22 13:37 | 48.35905 | 16.60712 | 7914 ft | 282 kts | 163° |
| 2026-04-22 13:37 | 48.34042 | 16.61488 | 7517 ft | 271 kts | 163° |
| 2026-04-22 13:38 | 48.32256 | 16.62235 | 7124 ft | 262 kts | 163° |
| 2026-04-22 13:38 | 48.28866 | 16.63656 | 6349 ft | 246 kts | 163° |
| 2026-04-22 13:38 | 48.27241 | 16.64340 | 5960 ft | 238 kts | 163° |
| 2026-04-22 13:39 | 48.25669 | 16.64999 | 5574 ft | 234 kts | 163° |
| 2026-04-22 13:39 | 48.24098 | 16.65655 | 5206 ft | 237 kts | 164° |
| 2026-04-22 13:39 | 48.22510 | 16.66321 | 4836 ft | 237 kts | 164° |
| 2026-04-22 13:39 | 48.20928 | 16.66982 | 4466 ft | 238 kts | 165° |
| 2026-04-22 13:40 | 48.19338 | 16.67638 | 4095 ft | 238 kts | 166° |
| 2026-04-22 13:40 | 48.17750 | 16.68014 | 3740 ft | 223 kts | 175° |
| 2026-04-22 13:40 | 48.16247 | 16.68218 | 3375 ft | 212 kts | 175° |
| 2026-04-22 13:40 | 48.14824 | 16.68421 | 3157 ft | 193 kts | 175° |
| 2026-04-22 13:41 | 48.13544 | 16.68607 | 3097 ft | 181 kts | 176° |
| 2026-04-22 13:41 | 48.12296 | 16.68794 | 3048 ft | 178 kts | 175° |
| 2026-04-22 13:41 | 48.11082 | 16.69008 | 2899 ft | 174 kts | 175° |
| 2026-04-22 13:41 | 48.09885 | 16.69010 | 2665 ft | 168 kts | 197° |
| 2026-04-22 13:42 | 48.08862 | 16.68298 | 2435 ft | 161 kts | 218° |
| 2026-04-22 13:42 | 48.08009 | 16.67230 | 2176 ft | 157 kts | 232° |
| 2026-04-22 13:42 | 48.07366 | 16.65951 | 1920 ft | 154 kts | 245° |
| 2026-04-22 13:42 | 48.06965 | 16.64553 | 1711 ft | 146 kts | 259° |
| 2026-04-22 13:43 | 48.06811 | 16.63078 | 1424 ft | 141 kts | 277° |
| 2026-04-22 13:43 | 48.06965 | 16.61659 | 1198 ft | 140 kts | 293° |
| 2026-04-22 13:43 | 48.07413 | 16.60370 | 997 ft | 139 kts | 310° |
| 2026-04-22 13:43 | 48.08146 | 16.59484 | 801 ft | 136 kts | 339° |
| 2026-04-22 13:44 | 48.09046 | 16.59063 | 614 ft | 133 kts | 343° |
| 2026-04-22 13:44 | 48.09869 | 16.58710 | 614 ft | 107 kts | 345° |
| 2026-04-22 13:44 | 48.10445 | 16.58469 | 614 ft | 65 kts | 345° |
| 2026-04-22 13:44 | 48.10744 | 16.58258 | 612 ft | 35 kts | 319° |
| 2026-04-22 13:45 | 48.10906 | 16.58012 | 611 ft | 31 kts | 318° |
| 2026-04-22 13:45 | 48.11087 | 16.57917 | 609 ft | 27 kts | 348° |
| 2026-04-22 13:45 | 48.11272 | 16.57839 | 608 ft | 27 kts | 342° |
| 2026-04-22 13:45 | 48.11459 | 16.57751 | 606 ft | 28 kts | 332° |
| 2026-04-22 13:46 | 48.11556 | 16.57519 | 605 ft | 24 kts | 296° |
| 2026-04-22 13:46 | 48.11621 | 16.57322 | 604 ft | 19 kts | 296° |
| 2026-04-22 13:46 | 48.11680 | 16.57143 | 603 ft | 17 kts | 295° |
| 2026-04-22 13:46 | 48.11630 | 16.57041 | 603 ft | 11 kts | 206° |
| 2026-04-22 13:47 | 48.11602 | 16.57021 | 603 ft | 0 kts | 206° |
| 2026-04-22 13:47 | 48.11569 | 16.56996 | 603 ft | 8 kts | 216° |
| 2026-04-22 13:47 | 48.11576 | 16.56929 | 603 ft | 7 kts | 297° |
| 2026-04-22 13:47 | 48.11616 | 16.56888 | 603 ft | 7 kts | 14° |
| 2026-04-22 13:48 | 48.11657 | 16.56916 | 602 ft | 5 kts | 26° |
| 2026-04-22 13:48 | 48.11676 | 16.56930 | 602 ft | 0 kts | 26° |